עמוד ראשי
METAR-TAF:

METAR-TAF

שדות תעופה :

Scammon Bay, אלסקה, ארצות הברית

קו רוחב: 61-50-43N, קו אורך: 165-34-17W, גובה: 4מטר

תצפית מזג אוויר נוכחית

הדו"ח נערך לפני 27דקות, בשעה 11:56 UTC
רוח 8קשר מכיוון מזרח
טמפרטורת 9 צלסיוס
לחות 100%
לחץ 1004 hPa
ראות: 16.1קילומטר
מעט עננים בגובה 2300רגל
מעונן בגובה 6000רגל
גשם קל

METAR: PACM 121156Z AUTO 08008KT 10SM -RA FEW023 OVC060 09/09 A2964 RMK AO2 SLP036 P0007 60024 70024 T00890089 10094 20083 58017

זמן: 04:23 (12:23 UTC)


TAF: חסר

תצפיות ותחזיות מזג אוויר לגבי יותר מ- 4,000 שדות תעופה ברחבי העולם. דוחות METAR ו- TAF.

התחנות הזמינות מסומנות בנקודות צהובות ואדומות על גבי המפה.

העבר את העכבר לנקודה הצבעונית על מנת לראות את שם התחנה.

לאחר מכן, לחץ כדי לראות את תוכן ואת תחזיות מזג האוויר.

כדי לשנות את המפה: לחץ על הכפתורים הירוקים עם הפלוס השחור כדי להתקרב; על הכפתור הירוק עם המקף כדי להתרחק; או בחיצים הירוקים למפות סמוכות.


METAR-TAF: